Time;durP1;ratioP1;P1;durP2;ratioP2;P2;SDS_P1;SDS_P2;PMS_P1;PMS_P2;Temp;Humidity;BMP_temperature;BMP_pressure;BME280_temperature;BME280_humidity;BME280_pressure;Samples;Min_cycle;Max_cycle;Signal;HPM_P1;HPM_P2
2020/12/11 00:00:35;;;;;;;47.20;30.07;;;;;;;0.74;84.40;99513.30;126608;1093;104403;-78
2020/12/11 00:03:02;;;;;;;45.90;28.83;;;;;;;0.73;84.53;99511.59;126712;1098;104481;-78
2020/12/11 00:05:30;;;;;;;44.50;27.40;;;;;;;0.72;84.25;99502.16;126580;1098;104474;-78
2020/12/11 00:07:57;;;;;;;49.77;29.80;;;;;;;0.73;84.51;99503.89;126676;1099;104433;-78
2020/12/11 00:10:24;;;;;;;53.15;30.30;;;;;;;0.73;84.14;99501.33;126482;1093;104423;-78
2020/12/11 00:12:52;;;;;;;51.40;31.70;;;;;;;0.73;84.26;99498.76;126679;1098;104508;-78
2020/12/11 00:15:19;;;;;;;46.07;30.63;;;;;;;0.74;83.97;99500.47;126572;1098;104548;-78
2020/12/11 00:17:48;;;;;;;60.33;37.97;;;;;;;0.75;84.41;99509.88;126432;1093;104475;-78
2020/12/11 00:20:15;;;;;;;62.47;39.27;;;;;;;0.76;84.14;99516.70;126367;1096;104464;-78
2020/12/11 00:22:42;;;;;;;63.52;38.00;;;;;;;0.76;84.47;99506.44;126435;1100;104488;-78
2020/12/11 00:25:10;;;;;;;56.67;35.40;;;;;;;0.75;84.02;99517.57;126401;1099;104554;-79
2020/12/11 00:27:37;;;;;;;49.60;30.20;;;;;;;0.75;84.20;99512.44;126597;1094;104695;-79
2020/12/11 00:30:04;;;;;;;47.38;29.87;;;;;;;0.74;84.20;99510.73;126558;1093;104811;-79
2020/12/11 00:32:35;;;;;;;45.83;28.70;;;;;;;0.75;84.62;99502.17;126601;1093;104445;-79
2020/12/11 00:35:09;;;;;;;51.07;29.63;;;;;;;0.76;84.20;99519.27;126670;1098;104455;-79
2020/12/11 00:37:36;;;;;;;50.27;30.13;;;;;;;0.75;84.44;99518.42;126323;1096;104458;-79
2020/12/11 00:40:04;;;;;;;45.87;28.27;;;;;;;0.77;84.38;99518.41;126615;1098;104454;-78
2020/12/11 00:42:32;;;;;;;52.87;31.93;;;;;;;0.76;84.22;99519.27;126392;1094;104458;-79
2020/12/11 00:45:00;;;;;;;45.67;29.60;;;;;;;0.75;84.30;99527.84;126441;1098;104477;-79
2020/12/11 00:47:27;;;;;;;50.87;30.93;;;;;;;0.75;84.90;99535.53;126390;1099;104327;-79
2020/12/11 00:49:55;;;;;;;49.87;29.20;;;;;;;0.75;84.41;99532.97;126487;1093;102837;-79
2020/12/11 00:52:22;;;;;;;51.35;30.30;;;;;;;0.75;84.41;99527.84;126375;1093;104514;-79
2020/12/11 00:54:51;;;;;;;53.23;32.13;;;;;;;0.76;84.47;99534.67;126719;1098;104445;-79
2020/12/11 00:57:18;;;;;;;53.10;32.57;;;;;;;0.74;84.37;99536.40;126382;1093;104817;-79
2020/12/11 00:59:46;;;;;;;52.43;32.87;;;;;;;0.73;84.49;99534.69;126423;1100;104593;-80
2020/12/11 01:02:13;;;;;;;55.47;31.33;;;;;;;0.73;84.42;99538.11;126337;1100;104413;-79
2020/12/11 01:04:40;;;;;;;54.43;33.27;;;;;;;0.73;84.59;99537.26;126425;1093;104536;-79
2020/12/11 01:07:07;;;;;;;56.03;33.47;;;;;;;0.72;84.77;99538.09;126566;1093;105703;-78
2020/12/11 01:09:34;;;;;;;59.13;33.90;;;;;;;0.71;84.83;99541.52;126635;1098;104369;-79
2020/12/11 01:12:02;;;;;;;55.03;33.33;;;;;;;0.68;84.59;99526.98;126344;1098;104291;-78
2020/12/11 01:14:29;;;;;;;54.13;33.73;;;;;;;0.69;84.67;99527.84;126677;1098;104449;-78
2020/12/11 01:16:56;;;;;;;57.03;34.57;;;;;;;0.69;84.80;99527.84;126708;1098;104518;-78
2020/12/11 01:19:24;;;;;;;57.47;34.47;;;;;;;0.68;84.81;99529.55;126755;1093;104449;-79
2020/12/11 01:21:51;;;;;;;61.10;35.30;;;;;;;0.68;84.88;99523.56;126497;1094;104693;-78
2020/12/11 01:24:19;;;;;;;60.70;34.90;;;;;;;0.69;84.76;99522.70;126361;1099;104237;-78
2020/12/11 01:26:46;;;;;;;56.53;34.67;;;;;;;0.69;84.75;99528.69;126463;1098;104526;-79
2020/12/11 01:29:14;;;;;;;55.27;34.70;;;;;;;0.69;84.99;99527.84;126613;1098;104493;-78
2020/12/11 01:31:41;;;;;;;52.67;33.77;;;;;;;0.70;84.84;99529.55;126712;1094;103287;-78
2020/12/11 01:34:08;;;;;;;55.77;34.33;;;;;;;0.70;84.28;99539.81;126599;1098;104539;-78
2020/12/11 01:36:35;;;;;;;52.23;33.17;;;;;;;0.70;84.90;99534.67;126634;1098;105715;-78
2020/12/11 01:39:03;;;;;;;53.90;34.40;;;;;;;0.71;84.85;99541.52;126346;1100;104385;-78
2020/12/11 01:41:33;;;;;;;52.37;32.23;;;;;;;0.71;84.79;99526.97;126750;1099;102032;-78
2020/12/11 01:44:06;;;;;;;50.13;31.97;;;;;;;0.72;84.80;99533.84;126379;1093;105638;-78
2020/12/11 01:46:41;;;;;;;53.07;31.33;;;;;;;0.72;84.63;99528.70;126676;1093;103552;-79
2020/12/11 01:49:11;;;;;;;50.53;32.00;;;;;;;0.74;84.92;99533.83;126596;1093;104548;-78
2020/12/11 01:51:38;;;;;;;50.33;31.70;;;;;;;0.73;84.71;99532.12;126476;1097;104359;-76
2020/12/11 01:54:06;;;;;;;47.70;31.30;;;;;;;0.74;84.75;99531.27;126357;1093;104436;-78
2020/12/11 01:56:43;;;;;;;51.60;31.93;;;;;;;0.75;84.64;99527.84;126468;1093;104465;-78
2020/12/11 01:59:18;;;;;;;53.97;33.53;;;;;;;0.74;84.76;99523.56;126378;1098;104385;-78
2020/12/11 02:01:49;;;;;;;55.10;33.23;;;;;;;0.73;84.61;99525.28;126513;1093;104522;-77
2020/12/11 02:04:17;;;;;;;50.20;31.90;;;;;;;0.74;84.90;99523.56;126674;1092;104436;-78
2020/12/11 02:06:45;;;;;;;53.50;33.55;;;;;;;0.75;84.83;99527.84;126484;1093;103149;-78
2020/12/11 02:09:12;;;;;;;50.17;30.80;;;;;;;0.75;84.78;99522.70;126631;1098;104417;-77
2020/12/11 02:11:39;;;;;;;49.10;31.73;;;;;;;0.73;84.91;99519.30;126746;1098;104435;-78
2020/12/11 02:14:09;;;;;;;49.37;32.40;;;;;;;0.73;84.61;99524.42;126698;1098;104557;-78
2020/12/11 02:16:36;;;;;;;50.20;31.90;;;;;;;0.73;85.28;99516.72;126381;1096;104266;-79
2020/12/11 02:19:04;;;;;;;50.40;31.65;;;;;;;0.72;84.91;99522.69;126431;1100;104605;-78
2020/12/11 02:21:32;;;;;;;54.93;31.43;;;;;;;0.72;84.75;99520.13;126617;1098;104551;-78
2020/12/11 02:23:59;;;;;;;53.27;33.20;;;;;;;0.74;84.85;99526.13;126709;1098;104500;-77
2020/12/11 02:26:27;;;;;;;54.90;33.77;;;;;;;0.72;85.08;99522.69;126643;1093;104558;-79
2020/12/11 02:28:54;;;;;;;47.33;30.70;;;;;;;0.72;84.64;99512.42;126529;1099;104467;-78
2020/12/11 02:31:21;;;;;;;52.40;32.03;;;;;;;0.72;84.90;99522.69;126405;1096;104413;-78
2020/12/11 02:33:49;;;;;;;53.70;31.63;;;;;;;0.70;85.06;99512.43;126720;1100;104424;-78
2020/12/11 02:36:21;;;;;;;49.75;31.68;;;;;;;0.70;85.01;99514.14;126507;1098;103299;-78
2020/12/11 02:38:48;;;;;;;54.83;33.70;;;;;;;0.69;85.05;99502.17;126465;1098;104458;-78
2020/12/11 02:41:15;;;;;;;53.83;33.17;;;;;;;0.70;84.85;99504.73;126512;1093;104451;-78
2020/12/11 02:43:43;;;;;;;53.80;33.13;;;;;;;0.69;85.09;99504.73;126508;1100;104423;-78
2020/12/11 02:46:10;;;;;;;54.38;32.95;;;;;;;0.67;85.17;99494.48;126377;1099;102667;-79
2020/12/11 02:48:38;;;;;;;56.00;34.30;;;;;;;0.66;85.35;99491.92;126690;1099;104436;-79
2020/12/11 02:51:05;;;;;;;57.07;34.07;;;;;;;0.66;85.28;99494.49;126279;1093;105073;-79
2020/12/11 02:53:32;;;;;;;53.50;32.53;;;;;;;0.66;85.30;99497.06;126682;1098;104961;-78
2020/12/11 02:55:59;;;;;;;55.60;33.35;;;;;;;0.64;85.51;99494.50;126597;1098;103377;-78
2020/12/11 02:58:27;;;;;;;52.47;32.53;;;;;;;0.65;85.50;99490.22;126673;1093;104478;-78
2020/12/11 03:00:54;;;;;;;50.20;31.67;;;;;;;0.64;85.62;99485.95;126395;1099;104483;-78
2020/12/11 03:03:23;;;;;;;48.07;29.77;;;;;;;0.65;85.54;99490.22;126628;1098;104535;-78
2020/12/11 03:05:51;;;;;;;47.40;29.67;;;;;;;0.66;85.19;99487.65;126636;1098;104490;-79
2020/12/11 03:08:19;;;;;;;45.40;28.87;;;;;;;0.69;85.05;99476.51;126378;1100;104375;-79
2020/12/11 03:10:46;;;;;;;45.90;28.05;;;;;;;0.72;84.94;99481.63;126646;1099;105488;-79
2020/12/11 03:13:13;;;;;;;45.73;29.00;;;;;;;0.73;85.16;99484.22;126323;1093;104552;-79
2020/12/11 03:15:40;;;;;;;46.57;29.93;;;;;;;0.74;85.25;99480.78;126648;1098;104410;-79
2020/12/11 03:18:08;;;;;;;46.57;30.07;;;;;;;0.76;85.48;99491.04;126546;1093;104454;-78
2020/12/11 03:20:35;;;;;;;47.25;30.62;;;;;;;0.76;84.91;99499.59;126674;1098;104432;-79
2020/12/11 03:23:02;;;;;;;49.23;31.20;;;;;;;0.75;84.79;99485.05;126638;1093;104370;-79
2020/12/11 03:25:29;;;;;;;51.03;31.53;;;;;;;0.75;85.25;99484.20;126449;1100;104404;-78
2020/12/11 03:27:56;;;;;;;51.15;32.03;;;;;;;0.75;85.27;99489.34;126452;1093;104609;-78
2020/12/11 03:30:24;;;;;;;49.20;31.70;;;;;;;0.75;85.15;99494.47;126470;1099;104276;-78
2020/12/11 03:32:51;;;;;;;50.87;32.13;;;;;;;0.75;85.15;99492.76;126395;1096;104531;-79
2020/12/11 03:35:18;;;;;;;48.23;31.50;;;;;;;0.75;84.89;99499.60;126701;1093;104506;-78
2020/12/11 03:37:45;;;;;;;48.77;31.17;;;;;;;0.75;85.09;99492.76;126361;1093;104567;-79
2020/12/11 03:40:13;;;;;;;49.63;31.67;;;;;;;0.75;85.03;99497.89;126465;1099;105630;-79
2020/12/11 03:42:40;;;;;;;51.37;31.77;;;;;;;0.76;85.22;99493.61;126390;1094;104391;-78
2020/12/11 03:45:07;;;;;;;47.03;29.67;;;;;;;0.76;85.13;99493.61;126687;1098;104462;-78
2020/12/11 03:47:35;;;;;;;51.53;32.27;;;;;;;0.77;84.97;99500.45;126445;1098;104595;-79
2020/12/11 03:50:02;;;;;;;49.03;30.90;;;;;;;0.77;85.07;99508.14;126562;1099;104926;-79
2020/12/11 03:52:30;;;;;;;50.33;31.27;;;;;;;0.77;85.20;99500.45;126682;1093;104620;-79
2020/12/11 03:54:57;;;;;;;51.60;30.53;;;;;;;0.77;85.11;99505.58;126551;1093;104529;-78
2020/12/11 03:57:24;;;;;;;50.97;29.60;;;;;;;0.78;85.18;99499.58;126681;1098;103399;-78
2020/12/11 03:59:52;;;;;;;52.00;30.50;;;;;;;0.79;85.27;99499.58;126436;1093;104436;-78
2020/12/11 04:02:19;;;;;;;49.95;29.92;;;;;;;0.80;85.24;99502.99;126567;1099;104467;-78
2020/12/11 04:04:47;;;;;;;47.47;28.63;;;;;;;0.81;84.97;99508.12;126590;1093;104407;-78
2020/12/11 04:07:19;;;;;;;45.85;29.25;;;;;;;0.82;84.94;99506.41;126494;1099;104397;-78
2020/12/11 04:09:46;;;;;;;49.00;30.10;;;;;;;0.82;84.93;99512.39;126586;1093;104388;-77
2020/12/11 04:12:13;;;;;;;49.03;29.92;;;;;;;0.83;84.89;99520.94;126615;1098;104491;-78
2020/12/11 04:14:40;;;;;;;45.30;28.70;;;;;;;0.83;84.96;99526.08;126550;1093;104551;-79
2020/12/11 04:17:07;;;;;;;47.27;29.50;;;;;;;0.82;84.82;99517.52;126463;1098;104525;-78
2020/12/11 04:19:35;;;;;;;49.20;28.90;;;;;;;0.87;84.56;99522.63;126393;1099;104430;-79
2020/12/11 04:22:02;;;;;;;46.13;28.47;;;;;;;0.88;84.70;99519.20;126684;1093;106619;-78
2020/12/11 04:24:30;;;;;;;49.93;29.23;;;;;;;0.89;84.85;99510.63;126477;1093;104528;-78
2020/12/11 04:26:57;;;;;;;43.93;27.07;;;;;;;0.88;84.65;99517.48;126456;1100;104465;-79
2020/12/11 04:29:24;;;;;;;45.10;27.87;;;;;;;0.88;84.68;99514.06;126753;1093;104475;-78
2020/12/11 04:31:56;;;;;;;43.07;27.20;;;;;;;0.90;84.87;99512.38;126489;1093;104477;-79
2020/12/11 04:34:24;;;;;;;49.47;28.10;;;;;;;0.90;84.88;99514.94;126437;1098;104551;-79
2020/12/11 04:36:57;;;;;;;45.27;28.40;;;;;;;0.90;84.80;99518.36;126666;1098;104432;-79
2020/12/11 04:39:25;;;;;;;44.97;27.27;;;;;;;0.90;84.85;99530.34;126651;1098;104733;-79
2020/12/11 04:41:53;;;;;;;43.93;27.40;;;;;;;0.89;84.63;99526.03;126397;1094;104531;-79
2020/12/11 04:44:21;;;;;;;47.10;28.20;;;;;;;0.89;85.02;99526.89;126481;1098;105432;-78
2020/12/11 04:46:50;;;;;;;48.30;27.50;;;;;;;0.87;84.71;99520.91;126333;1095;104555;-79
2020/12/11 04:49:18;;;;;;;47.97;28.07;;;;;;;0.85;85.30;99522.63;126452;1100;104378;-79
2020/12/11 04:51:50;;;;;;;47.93;27.13;;;;;;;0.83;85.11;99520.94;126351;1093;104917;-77
2020/12/11 04:54:21;;;;;;;48.03;27.77;;;;;;;0.82;85.16;99514.95;126506;1093;102077;-79
2020/12/11 04:56:50;;;;;;;45.20;27.37;;;;;;;0.81;85.29;99518.39;126569;1093;104526;-79
2020/12/11 04:59:19;;;;;;;43.83;26.87;;;;;;;0.81;85.28;99507.27;126620;1098;104394;-78
2020/12/11 05:01:46;;;;;;;49.53;28.87;;;;;;;0.82;85.47;99526.94;126608;1098;103251;-79
2020/12/11 05:04:14;;;;;;;48.27;28.30;;;;;;;0.81;85.27;99515.81;126638;1100;104472;-79
2020/12/11 05:06:41;;;;;;;49.40;29.60;;;;;;;0.82;85.34;99514.10;126570;1093;104506;-78
2020/12/11 05:09:16;;;;;;;50.40;28.43;;;;;;;0.82;84.95;99519.23;126443;1100;104459;-78
2020/12/11 05:11:45;;;;;;;49.80;29.83;;;;;;;0.81;85.24;99523.52;126403;1093;104235;-79
2020/12/11 05:14:19;;;;;;;50.57;29.50;;;;;;;0.82;85.23;99529.50;126670;1098;104167;-79
2020/12/11 05:17:06;;;;;;;49.80;29.60;;;;;;;0.80;85.46;99537.21;126586;1093;104552;-78
2020/12/11 05:19:49;;;;;;;47.70;28.80;;;;;;;0.79;85.14;99524.39;126469;1093;104430;-78
2020/12/11 05:22:17;;;;;;;46.73;27.50;;;;;;;0.77;85.36;99526.97;126444;1093;104455;-76
2020/12/11 05:24:46;;;;;;;49.53;28.80;;;;;;;0.77;85.54;99534.66;126434;1093;104589;-78
2020/12/11 05:27:30;;;;;;;50.07;28.93;;;;;;;0.76;85.40;99535.53;126386;1093;104496;-77
2020/12/11 05:30:17;;;;;;;51.10;29.17;;;;;;;0.73;85.43;99535.55;126485;1093;104424;-78
2020/12/11 05:32:49;;;;;;;53.50;30.00;;;;;;;0.74;85.55;99542.38;126602;1093;104552;-78
2020/12/11 05:35:17;;;;;;;54.50;29.80;;;;;;;0.71;85.71;99534.67;126618;1100;104487;-79
2020/12/11 05:38:03;;;;;;;55.33;29.87;;;;;;;0.70;85.94;99544.94;126607;1093;104589;-79
2020/12/11 05:40:41;;;;;;;53.47;29.90;;;;;;;0.70;85.81;99552.64;126581;1093;104429;-78
2020/12/11 05:43:19;;;;;;;51.95;31.25;;;;;;;0.69;85.72;99538.10;126626;1098;104420;-79
2020/12/11 05:45:57;;;;;;;56.30;30.30;;;;;;;0.67;85.87;99539.83;126528;1097;104533;-79
2020/12/11 05:48:34;;;;;;;60.33;31.20;;;;;;;0.67;85.85;99538.11;126641;1093;104423;-78
2020/12/11 05:51:16;;;;;;;58.37;30.97;;;;;;;0.68;85.87;99549.23;126632;1093;104660;-78
2020/12/11 05:53:44;;;;;;;55.53;30.13;;;;;;;0.69;85.81;99545.80;126483;1099;104523;-78
2020/12/11 05:56:11;;;;;;;57.10;31.17;;;;;;;0.69;85.72;99545.80;126490;1093;104477;-79
2020/12/11 05:58:41;;;;;;;58.33;31.77;;;;;;;0.71;85.87;99544.08;126415;1099;104448;-78
2020/12/11 06:01:17;;;;;;;59.70;30.53;;;;;;;0.71;85.64;99541.52;126446;1093;104459;-78
2020/12/11 06:03:46;;;;;;;56.10;30.60;;;;;;;0.72;85.65;99535.52;126330;1098;104677;-78
2020/12/11 06:06:17;;;;;;;56.77;30.73;;;;;;;0.74;85.90;99541.53;126478;1100;104414;-78
2020/12/11 06:08:45;;;;;;;54.00;30.97;;;;;;;0.75;85.81;99543.23;126527;1098;104519;-78
2020/12/11 06:11:35;;;;;;;54.30;31.17;;;;;;;0.76;85.65;99545.80;126649;1093;104366;-79
2020/12/11 06:14:10;;;;;;;52.13;29.67;;;;;;;0.77;85.56;99552.63;126583;1098;104474;-79
2020/12/11 06:16:39;;;;;;;60.33;31.03;;;;;;;0.77;85.69;99554.34;126426;1096;104474;-79
2020/12/11 06:19:07;;;;;;;58.00;31.00;;;;;;;0.78;85.49;99561.19;126436;1093;105138;-78
2020/12/11 06:21:36;;;;;;;58.57;31.13;;;;;;;0.77;85.81;99551.78;126630;1099;104228;-79
2020/12/11 06:24:03;;;;;;;54.93;30.57;;;;;;;0.78;85.54;99558.62;126632;1093;104394;-79
2020/12/11 06:26:30;;;;;;;54.43;29.07;;;;;;;0.78;85.58;99553.48;126477;1100;104474;-78
2020/12/11 06:28:58;;;;;;;65.93;31.37;;;;;;;0.77;85.57;99552.63;126457;1093;104542;-79
2020/12/11 06:31:25;;;;;;;56.90;30.37;;;;;;;0.77;85.39;99556.91;126452;1100;104372;-79
2020/12/11 06:33:54;;;;;;;59.67;31.57;;;;;;;0.76;85.52;99558.63;126721;1098;104478;-78
2020/12/11 06:36:22;;;;;;;70.17;32.13;;;;;;;0.79;85.58;99560.33;126616;1093;106363;-78
2020/12/11 06:38:57;;;;;;;64.97;32.40;;;;;;;0.79;85.79;99560.33;126693;1098;104391;-78
2020/12/11 06:41:27;;;;;;;62.43;32.33;;;;;;;0.81;85.60;99556.03;126705;1093;104584;-79
2020/12/11 06:43:56;;;;;;;65.60;33.15;;;;;;;0.84;85.82;99563.72;126662;1098;104909;-78
2020/12/11 06:46:25;;;;;;;67.20;32.97;;;;;;;0.84;85.84;99558.58;126436;1100;104376;-78
2020/12/11 06:49:22;;;;;;;60.47;32.53;;;;;;;0.85;85.87;99560.29;126701;1093;102026;-77
2020/12/11 06:51:49;;;;;;;66.43;32.60;;;;;;;0.85;85.42;99561.14;126405;1093;103239;-78
2020/12/11 06:54:19;;;;;;;65.90;33.83;;;;;;;0.87;85.64;99569.69;126704;1098;104530;-77
2020/12/11 06:56:52;;;;;;;68.70;33.40;;;;;;;0.88;85.61;99555.14;126650;1098;104545;-77
2020/12/11 06:59:22;;;;;;;61.53;34.07;;;;;;;0.88;85.89;99557.70;126761;1093;104449;-78
2020/12/11 07:01:56;;;;;;;71.40;33.73;;;;;;;0.86;85.60;99554.30;126641;1098;104317;-78
2020/12/11 07:04:23;;;;;;;71.87;33.57;;;;;;;0.85;86.10;99555.16;126636;1098;104499;-78
2020/12/11 07:06:53;;;;;;;60.23;32.10;;;;;;;0.83;86.14;99551.75;126583;1098;104666;-78
2020/12/11 07:09:24;;;;;;;73.97;33.53;;;;;;;0.82;85.99;99550.04;126654;1099;104506;-78
2020/12/11 07:11:51;;;;;;;66.30;34.73;;;;;;;0.80;86.00;99551.77;126384;1096;105614;-79
2020/12/11 07:14:25;;;;;;;76.13;35.13;;;;;;;0.79;86.06;99560.33;126550;1093;103505;-78
2020/12/11 07:16:53;;;;;;;68.37;34.07;;;;;;;0.77;86.56;99557.77;126409;1092;104471;-78
2020/12/11 07:19:20;;;;;;;64.60;32.80;;;;;;;0.76;86.04;99562.91;126726;1098;104972;-78
2020/12/11 07:21:49;;;;;;;66.00;33.13;;;;;;;0.76;86.06;99562.91;126599;1098;105577;-78
2020/12/11 07:24:16;;;;;;;69.27;33.43;;;;;;;0.76;86.42;99557.77;126729;1098;104458;-78
2020/12/11 07:26:43;;;;;;;60.97;32.93;;;;;;;0.75;86.15;99564.63;126359;1093;104589;-78
2020/12/11 07:29:17;;;;;;;63.42;32.55;;;;;;;0.74;86.40;99567.20;126622;1099;104618;-78
2020/12/11 07:31:46;;;;;;;56.27;30.73;;;;;;;0.73;86.36;99563.78;126386;1096;104465;-78
2020/12/11 07:34:17;;;;;;;56.27;30.17;;;;;;;0.73;86.56;99570.62;126484;1100;104449;-78
2020/12/11 07:36:46;;;;;;;60.57;31.80;;;;;;;0.73;86.13;99570.62;126381;1093;104452;-78
2020/12/11 07:39:15;;;;;;;61.20;30.90;;;;;;;0.73;86.38;99571.48;126495;1099;104541;-78
2020/12/11 07:41:46;;;;;;;58.80;31.17;;;;;;;0.74;86.21;99567.20;126457;1099;104541;-80
2020/12/11 07:44:27;;;;;;;59.43;30.70;;;;;;;0.75;86.36;99568.91;126373;1093;104638;-79
2020/12/11 07:46:56;;;;;;;56.00;30.80;;;;;;;0.74;86.24;99556.93;126553;1093;104372;-79
2020/12/11 07:49:41;;;;;;;56.63;30.90;;;;;;;0.75;85.86;99563.77;126364;1096;104490;-78
2020/12/11 07:52:10;;;;;;;59.57;31.90;;;;;;;0.76;86.66;99555.20;126744;1098;104486;-79
2020/12/11 07:54:43;;;;;;;59.03;30.37;;;;;;;0.76;86.16;99556.06;126514;1100;104490;-78
2020/12/11 07:57:11;;;;;;;59.23;31.87;;;;;;;0.81;86.03;99553.47;126390;1098;104474;-79
2020/12/11 07:59:55;;;;;;;60.97;31.77;;;;;;;0.84;85.98;99556.02;126617;1099;104545;-79
2020/12/11 08:02:23;;;;;;;59.83;30.87;;;;;;;0.87;85.95;99551.72;126648;1094;104402;-80
2020/12/11 08:04:51;;;;;;;60.27;30.90;;;;;;;0.89;85.62;99552.56;126365;1093;104346;-79
2020/12/11 08:07:27;;;;;;;66.03;31.83;;;;;;;0.90;85.60;99553.45;126540;1099;104474;-79
2020/12/11 08:10:05;;;;;;;59.97;31.80;;;;;;;0.94;85.57;99557.70;126370;1099;103462;-79
2020/12/11 08:12:33;;;;;;;62.73;31.00;;;;;;;0.97;85.90;99560.25;126673;1098;104397;-79
2020/12/11 08:15:00;;;;;;;61.30;32.10;;;;;;;1.00;85.58;99557.66;126375;1100;104419;-79
2020/12/11 08:17:30;;;;;;;59.43;29.93;;;;;;;1.02;85.56;99568.78;126677;1098;104445;-78
2020/12/11 08:20:04;;;;;;;63.53;32.03;;;;;;;1.04;85.48;99564.48;126644;1093;103682;-79
2020/12/11 08:22:33;;;;;;;60.27;31.50;;;;;;;1.08;85.55;99560.21;126662;1098;104539;-78
2020/12/11 08:25:19;;;;;;;64.20;33.40;;;;;;;1.10;85.25;99572.19;126614;1093;104397;-79
2020/12/11 08:27:47;;;;;;;61.80;32.13;;;;;;;1.12;85.41;99561.90;126568;1099;104359;-78
2020/12/11 08:30:15;;;;;;;63.87;32.30;;;;;;;1.15;85.37;99564.45;126631;1094;104510;-78
2020/12/11 08:32:45;;;;;;;53.10;28.50;;;;;;;1.16;85.17;99571.28;126447;1099;104576;-80
2020/12/11 08:35:22;;;;;;;58.60;30.77;;;;;;;1.16;85.05;99576.42;126381;1097;104464;-79
2020/12/11 08:38:05;;;;;;;61.57;30.83;;;;;;;1.18;84.76;99572.13;126624;1093;105612;-79
2020/12/11 08:40:46;;;;;;;51.93;28.83;;;;;;;1.19;84.88;99566.13;126514;1093;104464;-79
2020/12/11 08:43:32;;;;;;;54.07;28.40;;;;;;;1.20;84.82;99568.69;126746;1093;104369;-78
2020/12/11 08:48:37;;;;;;;52.65;30.00;;;;;;;1.22;85.05;99560.97;126474;1098;104398;-78
2020/12/11 08:51:06;;;;;;;52.83;28.87;;;;;;;1.23;84.56;99556.69;126440;1098;104381;-78
2020/12/11 08:53:36;;;;;;;63.00;31.93;;;;;;;1.23;84.73;99549.83;126676;1098;104424;-78
2020/12/11 08:56:07;;;;;;;58.93;31.97;;;;;;;1.24;84.76;99542.98;126597;1093;104459;-78
2020/12/11 08:58:35;;;;;;;59.97;30.87;;;;;;;1.23;84.49;99547.27;126489;1093;104574;-79
2020/12/11 09:01:04;;;;;;;56.45;29.65;;;;;;;1.25;84.99;99544.69;126324;1096;104285;-79
2020/12/11 09:03:33;;;;;;;61.63;30.80;;;;;;;1.29;84.99;99542.11;126446;1100;104468;-79
2020/12/11 09:06:00;;;;;;;60.23;30.40;;;;;;;1.32;84.27;99542.09;126613;1093;104491;-78
2020/12/11 09:08:28;;;;;;;56.63;28.70;;;;;;;1.35;84.47;99541.21;126611;1093;104403;-79
2020/12/11 09:10:55;;;;;;;57.10;31.10;;;;;;;1.36;84.56;99538.63;126510;1093;104432;-78
2020/12/11 09:13:23;;;;;;;58.67;29.87;;;;;;;1.42;84.41;99537.73;126394;1093;104513;-78
2020/12/11 09:15:50;;;;;;;58.07;30.87;;;;;;;1.48;84.56;99532.56;126337;1093;104435;-78
2020/12/11 09:18:18;;;;;;;62.50;31.10;;;;;;;1.59;84.41;99535.89;126714;1093;104488;-78
2020/12/11 09:20:45;;;;;;;62.27;32.00;;;;;;;1.62;83.74;99535.91;126404;1093;102407;-78
2020/12/11 09:23:12;;;;;;;62.67;32.87;;;;;;;1.63;83.52;99534.19;126686;1098;104519;-78
2020/12/11 09:25:40;;;;;;;64.57;34.03;;;;;;;1.59;83.80;99533.33;126556;1099;104548;-78
2020/12/11 09:28:16;;;;;;;64.60;33.65;;;;;;;1.57;83.80;99542.77;126388;1099;104375;-78
2020/12/11 09:30:45;;;;;;;64.58;33.85;;;;;;;1.50;83.76;99530.84;126441;1099;104353;-78
2020/12/11 09:33:18;;;;;;;67.37;33.50;;;;;;;1.43;84.02;99534.30;126637;1094;104400;-78
2020/12/11 09:35:45;;;;;;;69.70;34.67;;;;;;;1.38;83.95;99525.77;126456;1098;104465;-79
2020/12/11 09:38:14;;;;;;;66.67;34.10;;;;;;;1.35;83.97;99525.80;126583;1098;104436;-78
2020/12/11 09:51:51;;;;;;;77.87;35.73;;;;;;;1.32;84.21;99520.69;126510;1093;104208;-79
2020/12/11 09:54:18;;;;;;;76.80;37.60;;;;;;;1.32;84.46;99510.41;126441;1093;104519;-78
2020/12/11 09:56:46;;;;;;;81.07;38.43;;;;;;;1.33;84.29;99507.83;126471;1099;104398;-79
2020/12/11 09:59:19;;;;;;;86.63;38.00;;;;;;;1.33;84.13;99501.84;126391;1099;104525;-79
2020/12/11 10:04:34;;;;;;;94.05;40.23;;;;;;;1.37;84.29;99498.37;126525;1093;105885;-79
2020/12/11 10:07:01;;;;;;;81.47;37.20;;;;;;;1.38;84.01;99500.08;126459;1099;103701;-79
2020/12/11 10:09:29;;;;;;;85.53;37.93;;;;;;;1.36;84.24;99488.96;126368;1096;104397;-78
2020/12/11 10:11:59;;;;;;;86.63;37.00;;;;;;;1.35;84.18;99495.82;126738;1093;104372;-79
2020/12/11 10:14:32;;;;;;;88.30;37.00;;;;;;;1.37;84.25;99490.67;126376;1100;104434;-78
2020/12/11 10:17:00;;;;;;;95.65;37.40;;;;;;;1.37;84.34;99483.81;126433;1099;104256;-79
2020/12/11 10:19:28;;;;;;;91.97;36.53;;;;;;;1.36;84.47;99494.10;126665;1093;104193;-79
2020/12/11 10:21:55;;;;;;;87.53;35.80;;;;;;;1.35;84.13;99488.11;126441;1099;104541;-78
2020/12/11 10:24:24;;;;;;;85.03;35.67;;;;;;;1.39;84.43;99483.80;126355;1096;104499;-78
2020/12/11 10:26:51;;;;;;;91.83;37.53;;;;;;;1.44;84.62;99490.63;126618;1098;104429;-79
2020/12/11 10:29:18;;;;;;;86.57;36.60;;;;;;;1.44;84.32;99490.63;126383;1093;104420;-78
2020/12/11 10:31:46;;;;;;;89.43;37.33;;;;;;;1.44;84.18;99495.77;126421;1095;104538;-79
2020/12/11 10:34:16;;;;;;;89.37;37.10;;;;;;;1.44;84.32;99489.78;126384;1097;104456;-78
2020/12/11 10:36:44;;;;;;;92.37;36.93;;;;;;;1.46;83.94;99493.19;126517;1099;104497;-79
2020/12/11 10:39:12;;;;;;;96.17;37.13;;;;;;;1.45;84.13;99481.20;126614;1093;103141;-78
2020/12/11 10:41:41;;;;;;;87.97;38.37;;;;;;;1.47;84.13;99477.75;126662;1093;104404;-79
2020/12/11 10:44:09;;;;;;;94.37;37.23;;;;;;;1.48;84.12;99476.89;126362;1093;103106;-79
2020/12/11 10:46:36;;;;;;;88.70;35.13;;;;;;;1.47;84.12;99474.33;126424;1093;104436;-79
2020/12/11 10:49:03;;;;;;;87.40;36.83;;;;;;;1.46;83.87;99482.91;126441;1098;104481;-79
2020/12/11 10:51:31;;;;;;;86.53;35.07;;;;;;;1.41;83.81;99470.07;126410;1100;104488;-78
2020/12/11 10:54:00;;;;;;;86.27;36.80;;;;;;;1.41;84.15;99470.07;126702;1098;104544;-79
2020/12/11 10:56:27;;;;;;;81.70;35.03;;;;;;;1.41;83.88;99466.66;126368;1093;104837;-79
2020/12/11 10:58:56;;;;;;;87.60;37.10;;;;;;;1.42;83.96;99465.78;126695;1093;104452;-78
2020/12/11 11:01:23;;;;;;;90.13;39.80;;;;;;;1.42;84.13;99461.50;126619;1098;104359;-78
2020/12/11 11:03:52;;;;;;;89.20;38.67;;;;;;;1.43;84.03;99470.06;126464;1099;104474;-78
2020/12/11 11:06:29;;;;;;;91.67;39.30;;;;;;;1.45;84.00;99461.50;126297;1100;104539;-78
2020/12/11 11:22:49;;;;;;;93.27;40.00;;;;;;;1.63;83.72;99460.50;126619;1094;104826;-78
2020/12/11 11:28:03;;;;;;;88.17;39.40;;;;;;;1.62;83.69;99466.50;126678;1094;103196;-79
2020/12/11 11:30:32;;;;;;;92.63;41.77;;;;;;;1.60;83.91;99475.06;126445;1100;104439;-79
2020/12/11 11:32:59;;;;;;;88.63;39.37;;;;;;;1.57;83.81;99470.81;126533;1093;104625;-78
2020/12/11 11:35:30;;;;;;;84.90;38.87;;;;;;;1.57;83.89;99464.81;126469;1099;104519;-78
2020/12/11 11:37:59;;;;;;;92.83;40.10;;;;;;;1.56;83.93;99463.96;126455;1093;104459;-78
2020/12/11 11:40:27;;;;;;;81.40;38.97;;;;;;;1.56;83.98;99458.83;126511;1093;104522;-79
2020/12/11 11:42:54;;;;;;;91.00;40.35;;;;;;;1.56;83.82;99455.41;126626;1093;104320;-79
2020/12/11 11:45:25;;;;;;;80.83;36.57;;;;;;;1.56;83.10;99457.97;126651;1093;105338;-77
2020/12/11 11:47:56;;;;;;;91.93;40.80;;;;;;;1.56;84.15;99456.25;126404;1093;104478;-78
2020/12/11 11:53:05;;;;;;;84.37;38.73;;;;;;;1.58;84.09;99461.38;126579;1098;104901;-78
2020/12/11 11:55:33;;;;;;;85.47;38.57;;;;;;;1.60;83.96;99457.92;126433;1096;104474;-79